Time;durP1;ratioP1;P1;durP2;ratioP2;P2;SDS_P1;SDS_P2;PMS_P1;PMS_P2;Temp;Humidity;BMP_temperature;BMP_pressure;BME280_temperature;BME280_humidity;BME280_pressure;Samples;Min_cycle;Max_cycle;Signal;HPM_P1;HPM_P2
2023/09/17 07:23:14;;;;;;;28.98;26.40;;;;;;;-145.79;100.00;76908.88;5284009;28;20412;-75
2023/09/17 07:25:46;;;;;;;28.63;26.13;;;;;;;-145.79;100.00;76904.63;5282067;28;20040;-74
2023/09/17 07:28:18;;;;;;;31.38;28.60;;;;;;;-145.79;100.00;76908.88;5279591;28;20025;-74
2023/09/17 07:30:57;;;;;;;29.58;26.88;;;;;;;-145.79;100.00;76898.25;5278277;28;20029;-75
2023/09/17 07:33:28;;;;;;;30.10;27.45;;;;;;;-145.79;100.00;76896.16;5278214;28;20024;-75
2023/09/17 07:36:00;;;;;;;30.30;27.80;;;;;;;-145.79;100.00;76885.56;5281368;28;20035;-76
2023/09/17 07:38:31;;;;;;;30.92;28.20;;;;;;;-145.79;100.00;76877.06;5282216;28;20033;-75
2023/09/17 07:41:03;;;;;;;29.90;27.20;;;;;;;-145.79;100.00;76866.47;5281334;28;20029;-74
2023/09/17 07:43:34;;;;;;;29.90;27.30;;;;;;;-145.79;100.00;76868.59;5283471;28;20020;-76
2023/09/17 07:46:05;;;;;;;29.10;26.58;;;;;;;-145.79;100.00;76853.75;5280751;28;20052;-76
2023/09/17 07:48:37;;;;;;;30.48;27.67;;;;;;;-145.79;100.00;76851.63;5281155;28;20108;-76
2023/09/17 07:51:08;;;;;;;31.13;28.63;;;;;;;-145.79;100.00;76851.63;5280159;28;20044;-76
2023/09/17 07:53:39;;;;;;;31.58;28.77;;;;;;;-145.79;100.00;76847.41;5277830;28;20115;-75
2023/09/17 07:56:11;;;;;;;31.45;28.80;;;;;;;-145.79;100.00;76845.28;5284236;28;20472;-75
2023/09/17 07:58:42;;;;;;;25.40;23.30;;;;;;;-145.79;100.00;76843.16;5275221;28;20477;-72
2023/09/17 08:01:14;;;;;;;31.60;28.92;;;;;;;-145.79;100.00;76853.75;5285947;28;20024;-76
2023/09/17 08:03:46;;;;;;;31.05;28.35;;;;;;;-145.79;100.00;76849.53;5277520;28;20028;-76
2023/09/17 08:06:18;;;;;;;31.23;28.48;;;;;;;-145.79;100.00;76847.41;5281408;28;20021;-76
2023/09/17 08:08:49;;;;;;;32.83;29.92;;;;;;;-145.79;100.00;76868.59;5281651;28;20115;-76
2023/09/17 08:11:21;;;;;;;31.70;29.10;;;;;;;-145.79;100.00;76843.16;5283057;28;20033;-76
2023/09/17 08:13:53;;;;;;;30.75;28.17;;;;;;;-145.79;100.00;76847.41;5283202;28;20032;-77
2023/09/17 08:16:25;;;;;;;29.33;26.83;;;;;;;-145.79;100.00;76847.41;5281605;28;20412;-76
2023/09/17 08:18:57;;;;;;;33.55;30.45;;;;;;;-145.79;100.00;76845.28;5280559;28;20453;-75
2023/09/17 08:21:29;;;;;;;32.58;29.58;;;;;;;-145.79;100.00;76855.88;5274436;28;20037;-75
2023/09/17 08:24:00;;;;;;;33.05;30.17;;;;;;;-145.79;100.00;76868.59;5281766;28;20032;-74
2023/09/17 08:26:31;;;;;;;32.28;29.48;;;;;;;-145.79;100.00;76853.75;5285020;28;20074;-75
2023/09/17 08:29:05;;;;;;;33.17;30.38;;;;;;;-145.79;100.00;76843.16;5285617;28;20063;-75
2023/09/17 08:31:36;;;;;;;33.00;30.15;;;;;;;-145.79;100.00;76841.03;5284353;28;20028;-76
2023/09/17 08:34:07;;;;;;;31.83;29.10;;;;;;;-145.79;100.00;76830.44;5270875;28;20025;-76
2023/09/17 08:36:40;;;;;;;32.55;29.92;;;;;;;-145.79;100.00;76826.22;5266576;28;20052;-75
2023/09/17 08:39:13;;;;;;;34.58;31.50;;;;;;;-145.79;100.00;76819.84;5263680;28;20029;-75
2023/09/17 08:41:44;;;;;;;33.47;30.50;;;;;;;-145.79;100.00;76805.00;5265081;28;20117;-75
2023/09/17 08:44:17;;;;;;;34.05;31.05;;;;;;;-145.79;100.00;76802.91;5263989;28;20528;-75
2023/09/17 08:46:52;;;;;;;34.50;31.60;;;;;;;-145.79;100.00;76805.00;5266967;28;20035;-76
2023/09/17 08:49:23;;;;;;;33.37;30.30;;;;;;;-145.79;100.00;76809.25;5268663;28;20032;-75
2023/09/17 08:51:57;;;;;;;33.65;30.58;;;;;;;-145.79;100.00;76821.97;5268329;28;20267;-75
2023/09/17 08:54:41;;;;;;;33.53;30.42;;;;;;;-145.79;100.00;76813.50;5262979;28;20033;-75
2023/09/17 08:57:14;;;;;;;37.58;34.10;;;;;;;-145.79;100.00;76805.00;5264037;28;20033;-76
2023/09/17 08:59:51;;;;;;;37.13;33.72;;;;;;;-145.79;100.00;76805.00;5265336;28;20125;-76
2023/09/17 09:02:31;;;;;;;37.08;33.67;;;;;;;-145.79;100.00;76800.78;5264739;28;20067;-75
2023/09/17 09:05:03;;;;;;;37.33;34.00;;;;;;;-145.79;100.00;76802.91;5263672;28;20025;-76
2023/09/17 09:07:35;;;;;;;38.35;34.85;;;;;;;-145.79;100.00;76821.97;5268122;28;20056;-76
2023/09/17 09:10:07;;;;;;;37.92;34.20;;;;;;;-145.79;100.00;76813.50;5269064;28;20021;-76
2023/09/17 09:12:39;;;;;;;37.70;34.22;;;;;;;-145.79;100.00;76811.38;5264512;28;20041;-76
2023/09/17 09:15:11;;;;;;;38.67;34.78;;;;;;;-145.79;100.00;76809.25;5266822;28;20441;-75
2023/09/17 09:17:42;;;;;;;40.10;36.20;;;;;;;-145.79;100.00;76815.63;5262507;28;20025;-76
2023/09/17 09:20:18;;;;;;;41.58;37.45;;;;;;;-145.79;100.00;76805.00;5266435;28;20028;-75
2023/09/17 09:22:49;;;;;;;;;;;;;;;-145.79;100.00;76792.31;5261162;28;20500;-76
2023/09/17 09:25:20;;;;;;;37.55;33.83;;;;;;;-145.79;100.00;76796.53;5262748;28;20050;-76
2023/09/17 09:27:52;;;;;;;38.88;35.03;;;;;;;-145.79;100.00;76790.19;5264188;28;20363;-76
2023/09/17 09:30:25;;;;;;;38.90;35.03;;;;;;;-145.79;100.00;76796.53;5274867;28;20052;-77
2023/09/17 09:32:57;;;;;;;39.65;35.40;;;;;;;-145.79;100.00;76790.19;5275594;28;20111;-75
2023/09/17 09:35:29;;;;;;;39.95;36.22;;;;;;;-145.79;100.00;76790.19;5269112;28;20227;-76
2023/09/17 09:38:01;;;;;;;40.47;36.47;;;;;;;-145.79;100.00;76788.06;5271777;28;20435;-76
2023/09/17 09:40:34;;;;;;;38.22;34.25;;;;;;;-145.79;100.00;76788.06;5274541;28;20479;-77
2023/09/17 09:43:26;;;;;;;38.72;34.83;;;;;;;-145.79;100.00;76779.59;5270281;28;20040;-76
2023/09/17 09:46:04;;;;;;;39.03;35.30;;;;;;;-145.79;100.00;76788.06;5264557;28;20029;-76
2023/09/17 09:48:39;;;;;;;40.80;36.42;;;;;;;-145.79;100.00;76783.81;5271928;28;20056;-76
2023/09/17 09:51:10;;;;;;;40.03;35.88;;;;;;;-145.79;100.00;76779.59;5262783;28;20033;-75
2023/09/17 09:53:42;;;;;;;39.97;36.00;;;;;;;-145.79;100.00;76790.19;5263711;28;20021;-75
2023/09/17 09:56:13;;;;;;;38.88;34.92;;;;;;;-145.79;100.00;76781.69;5262948;28;20031;-75
2023/09/17 09:58:45;;;;;;;41.22;37.17;;;;;;;-145.79;100.00;76779.59;5262458;28;20027;-76
2023/09/17 10:01:16;;;;;;;40.38;36.42;;;;;;;-145.79;100.00;76785.94;5261564;28;20124;-76
2023/09/17 10:03:49;;;;;;;39.17;35.05;;;;;;;-145.79;100.00;76766.88;5264273;28;20111;-75
2023/09/17 10:06:20;;;;;;;39.70;35.70;;;;;;;-145.79;100.00;76762.63;5262159;28;20077;-75
2023/09/17 10:08:52;;;;;;;38.53;34.78;;;;;;;-145.79;100.00;76758.38;5262975;28;20072;-75
2023/09/17 10:11:25;;;;;;;41.70;37.55;;;;;;;-145.79;100.00;76754.16;5258794;28;20071;-76
2023/09/17 10:14:05;;;;;;;45.10;40.53;;;;;;;-145.79;100.00;76749.91;5261384;28;20086;-75
2023/09/17 10:16:40;;;;;;;42.80;38.35;;;;;;;-145.79;100.00;76737.19;5261981;28;20032;-76
2023/09/17 10:19:18;;;;;;;42.07;37.60;;;;;;;-145.79;100.00;76726.59;5262116;28;20028;-76
2023/09/17 10:21:52;;;;;;;40.38;36.25;;;;;;;-145.79;100.00;76718.13;5257702;28;20128;-75
2023/09/17 10:24:26;;;;;;;37.85;33.85;;;;;;;-145.79;100.00;76707.53;5260834;28;20039;-76
2023/09/17 10:26:59;;;;;;;38.55;34.20;;;;;;;-145.79;100.00;76694.81;5262031;28;20029;-74
2023/09/17 10:29:32;;;;;;;36.75;33.10;;;;;;;-145.79;100.00;76690.56;5261506;28;20170;-75
2023/09/17 10:32:04;;;;;;;37.03;33.33;;;;;;;-145.79;100.00;76686.34;5260191;28;20056;-76
2023/09/17 10:34:35;;;;;;;37.20;33.53;;;;;;;-145.79;100.00;76679.97;5262923;28;20056;-76
2023/09/17 10:37:08;;;;;;;37.72;33.75;;;;;;;-145.79;100.00;76679.97;5261721;28;20053;-76
2023/09/17 10:39:42;;;;;;;36.58;33.00;;;;;;;-145.79;100.00;76671.50;5261584;28;20120;-77
2023/09/17 10:42:16;;;;;;;41.55;37.50;;;;;;;-145.79;100.00;76665.16;5260110;28;20483;-77
2023/09/17 10:44:49;;;;;;;36.38;32.67;;;;;;;-145.79;100.00;76658.78;5262246;28;20044;-81
2023/09/17 10:47:21;;;;;;;33.85;30.52;;;;;;;-145.79;100.00;76652.44;5263465;28;20422;-81
2023/09/17 10:49:52;;;;;;;34.78;31.40;;;;;;;-145.79;100.00;76654.53;5264003;28;20025;-80
2023/09/17 10:52:25;;;;;;;35.30;31.60;;;;;;;-145.79;100.00;76654.53;5260073;28;20033;-83
2023/09/17 10:54:56;;;;;;;37.22;33.78;;;;;;;-145.79;100.00;76637.59;5265251;28;20021;-75
2023/09/17 10:57:39;;;;;;;45.90;41.67;;;;;;;-145.79;100.00;76639.72;5263498;28;20025;-76
2023/09/17 11:00:17;;;;;;;51.10;45.92;;;;;;;-145.79;100.00;76631.22;5263666;28;20033;-77
2023/09/17 11:02:55;;;;;;;34.03;30.83;;;;;;;-145.79;100.00;76629.13;5266471;28;20025;-77
2023/09/17 11:05:28;;;;;;;31.10;28.10;;;;;;;-145.79;100.00;76631.22;5260939;28;20024;-77
2023/09/17 11:08:04;;;;;;;36.90;33.15;;;;;;;-145.79;100.00;76627.00;5260921;28;20107;-77
2023/09/17 11:10:41;;;;;;;32.10;29.00;;;;;;;-145.79;100.00;76614.28;5259561;28;20401;-72
2023/09/17 11:13:14;;;;;;;31.02;28.02;;;;;;;-145.79;100.00;76597.31;5260160;28;20391;-72
2023/09/17 11:15:46;;;;;;;29.70;26.67;;;;;;;-145.79;100.00;76605.81;5263701;28;20029;-72
2023/09/17 11:18:17;;;;;;;29.70;26.83;;;;;;;-145.79;100.00;76603.69;5261607;28;20096;-71
2023/09/17 11:21:06;;;;;;;26.88;24.17;;;;;;;-145.79;100.00;76582.50;5261767;28;20491;-76
2023/09/17 11:23:46;;;;;;;27.15;24.27;;;;;;;-145.79;100.00;76578.25;5257866;28;20074;-76
2023/09/17 11:26:20;;;;;;;28.75;25.85;;;;;;;-145.79;100.00;76576.13;5261862;28;20040;-76
2023/09/17 11:28:56;;;;;;;28.63;25.65;;;;;;;-145.79;100.00;76578.25;5260751;28;20473;-77
2023/09/17 11:31:28;;;;;;;25.67;23.08;;;;;;;-145.79;100.00;76582.50;5261905;28;20059;-74
2023/09/17 11:34:00;;;;;;;26.23;23.70;;;;;;;-145.79;100.00;76571.91;5260477;28;20428;-75
2023/09/17 11:36:32;;;;;;;42.55;38.50;;;;;;;-145.79;100.00;76571.91;5265775;28;20021;-75
2023/09/17 11:39:06;;;;;;;25.48;22.85;;;;;;;-145.79;100.00;76571.91;5265391;28;20445;-76
2023/09/17 11:41:42;;;;;;;25.90;23.25;;;;;;;-145.79;100.00;76563.41;5265468;28;20132;-75
2023/09/17 11:44:13;;;;;;;23.67;21.48;;;;;;;-145.79;100.00;76561.28;5263816;28;20021;-75
2023/09/17 11:46:45;;;;;;;23.88;21.48;;;;;;;-145.79;100.00;76557.06;5264151;28;20025;-77
2023/09/17 11:49:18;;;;;;;21.13;19.30;;;;;;;-145.79;100.00;76512.56;5261555;28;20400;-76
2023/09/17 11:51:49;;;;;;;21.52;19.33;;;;;;;-145.79;100.00;76491.38;5262071;28;20021;-76
2023/09/17 11:54:23;;;;;;;19.73;17.92;;;;;;;-145.79;100.00;76457.47;5261085;28;20025;-78
2023/09/17 11:56:55;;;;;;;19.23;17.27;;;;;;;-145.79;100.00;76448.97;5270880;28;20094;-77
2023/09/17 11:59:26;;;;;;;16.40;14.88;;;;;;;-145.79;100.00;76448.97;5265330;28;20033;-77
2023/09/17 12:01:59;;;;;;;17.10;15.60;;;;;;;-145.79;100.00;76438.38;5258752;28;20036;-76
2023/09/17 12:04:31;;;;;;;17.13;15.52;;;;;;;-145.79;99.39;76440.50;5264435;28;20492;-75
2023/09/17 12:07:08;;;;;;;18.05;16.25;;;;;;;-145.79;99.81;76427.78;5263925;28;20020;-77
2023/09/17 12:10:05;;;;;;;14.63;13.32;;;;;;;-145.79;99.35;76425.66;5261511;28;20028;-77
2023/09/17 12:12:36;;;;;;;;;;;;;;;-145.79;97.23;76415.06;5263896;28;20086;-77
2023/09/17 12:15:11;;;;;;;16.98;12.25;;;;;;;-145.79;95.30;76415.06;5267697;28;19920;-74
2023/09/17 12:17:44;;;;;;;12.77;11.52;;;;;;;-145.79;94.35;76398.13;5261940;28;20032;-76
2023/09/17 12:20:59;;;;;;;13.05;11.95;;;;;;;-145.79;94.84;76396.00;5265020;28;20035;-77
2023/09/17 12:24:06;;;;;;;12.10;10.85;;;;;;;-145.79;93.18;76415.06;5261051;28;20033;-76
2023/09/17 12:26:57;;;;;;;12.60;11.27;;;;;;;-145.79;93.36;76408.72;5265208;28;20087;-77
2023/09/17 12:29:28;;;;;;;;;;;;;;;-145.79;94.90;76374.81;5274929;28;20029;-75
2023/09/17 12:31:59;;;;;;;12.25;11.05;;;;;;;-145.79;92.84;76379.06;5265142;28;19928;-73
2023/09/17 12:34:34;;;;;;;12.88;11.57;;;;;;;-145.79;93.61;76381.16;5271207;28;20044;-75
2023/09/17 12:37:06;;;;;;;12.48;10.55;;;;;;;-145.79;93.90;76379.06;5271545;28;20025;-78
2023/09/17 12:39:39;;;;;;;10.88;9.88;;;;;;;-145.79;93.43;76379.06;5277069;28;20047;-78
2023/09/17 12:42:11;;;;;;;10.63;9.63;;;;;;;-145.79;92.39;76385.41;5277092;28;20047;-77
2023/09/17 12:44:42;;;;;;;12.68;11.57;;;;;;;-145.79;93.03;76368.47;5272931;28;20025;-78
2023/09/17 12:47:15;;;;;;;11.80;10.60;;;;;;;-145.79;93.24;76330.31;5264880;28;20494;-78
2023/09/17 12:49:46;;;;;;;11.93;10.82;;;;;;;-145.79;90.30;76330.31;5270842;28;20045;-77
2023/09/17 12:52:18;;;;;;;11.98;10.95;;;;;;;-145.79;90.01;76326.06;5272160;28;20052;-78
2023/09/17 12:54:53;;;;;;;11.30;10.20;;;;;;;-145.79;89.57;76340.91;5271367;28;20039;-78
2023/09/17 12:57:24;;;;;;;10.88;9.98;;;;;;;-145.79;90.60;76347.25;5263035;28;20028;-75
2023/09/17 12:59:56;;;;;;;11.75;10.65;;;;;;;-145.79;88.81;76351.50;5269243;28;20035;-76
2023/09/17 13:02:31;;;;;;;10.75;9.65;;;;;;;-145.79;88.05;76338.78;5276860;28;20040;-75
2023/09/17 13:05:02;;;;;;;9.77;8.85;;;;;;;-145.79;87.23;76326.06;5270601;28;20032;-75
2023/09/17 13:07:36;;;;;;;10.55;9.55;;;;;;;-145.79;87.46;76304.88;5276155;28;20025;-74
2023/09/17 13:10:32;;;;;;;10.95;9.93;;;;;;;-145.79;87.92;76300.66;5260768;28;20064;-78
2023/09/17 13:13:05;;;;;;;10.88;9.70;;;;;;;-145.79;87.94;76304.88;5272690;28;20036;-75
2023/09/17 13:15:36;;;;;;;10.50;9.45;;;;;;;-145.79;85.88;76309.13;5276246;28;20033;-75
2023/09/17 13:18:08;;;;;;;9.80;9.00;;;;;;;-145.79;86.65;76285.81;5273955;28;20361;-76
2023/09/17 13:20:39;;;;;;;10.13;9.23;;;;;;;-145.79;86.70;76270.97;5271097;28;20021;-75
2023/09/17 13:23:10;;;;;;;11.57;9.35;;;;;;;-145.79;86.86;76266.75;5273688;28;20085;-76
2023/09/17 13:25:42;;;;;;;10.45;9.55;;;;;;;-145.79;86.54;76254.03;5265411;28;20101;-76
2023/09/17 13:28:16;;;;;;;9.75;8.93;;;;;;;-145.79;84.82;76258.25;5269439;28;20495;-75
2023/09/17 13:30:51;;;;;;;10.35;8.10;;;;;;;-145.79;84.64;76247.66;5273988;28;20445;-75
2023/09/17 13:33:22;;;;;;;9.82;8.85;;;;;;;-145.79;84.71;76249.78;5270111;28;20062;-76
2023/09/17 13:35:54;;;;;;;8.77;8.00;;;;;;;-145.79;84.44;76266.75;5269901;28;20033;-76
2023/09/17 13:38:25;;;;;;;9.18;8.38;;;;;;;-145.79;86.01;76273.09;5271223;28;20068;-76
2023/09/17 13:40:57;;;;;;;9.18;8.32;;;;;;;-145.79;85.75;76287.94;5272745;28;20412;-75
2023/09/17 13:43:28;;;;;;;10.88;9.88;;;;;;;-145.79;86.52;76285.81;5270381;28;20088;-76
2023/09/17 13:46:02;;;;;;;10.15;9.25;;;;;;;-145.79;86.94;76277.34;5275651;28;20420;-79
2023/09/17 13:48:34;;;;;;;9.40;8.43;;;;;;;-145.79;87.79;76279.47;5272839;28;20470;-76
2023/09/17 13:51:05;;;;;;;9.70;8.80;;;;;;;-145.79;88.36;76277.34;5271533;28;20024;-76
2023/09/17 13:53:36;;;;;;;9.73;8.82;;;;;;;-145.79;86.55;76283.69;5273100;28;20033;-76
2023/09/17 13:56:08;;;;;;;9.60;8.77;;;;;;;-145.79;87.25;76275.22;5275462;28;20116;-76
2023/09/17 13:58:39;;;;;;;15.30;13.85;;;;;;;-145.79;87.96;76264.63;5274409;28;20020;-76
2023/09/17 14:01:12;;;;;;;9.63;8.68;;;;;;;-145.79;87.24;76266.75;5268303;28;20033;-76
2023/09/17 14:03:43;;;;;;;9.45;8.40;;;;;;;-145.79;87.14;76262.50;5271392;28;20021;-77
2023/09/17 14:06:14;;;;;;;9.63;8.80;;;;;;;-145.79;87.34;76254.03;5275416;28;20494;-78
2023/09/17 14:08:46;;;;;;;9.13;8.25;;;;;;;-145.79;86.18;76251.91;5273379;28;20029;-76
2023/09/17 14:11:18;;;;;;;9.32;8.25;;;;;;;-145.79;86.35;76237.06;5271202;28;20333;-76
2023/09/17 14:13:49;;;;;;;9.80;8.57;;;;;;;-145.79;86.27;76237.06;5271737;28;20049;-77
2023/09/17 14:16:21;;;;;;;9.02;8.23;;;;;;;-145.79;86.99;76243.44;5269659;28;20048;-75
2023/09/17 14:18:52;;;;;;;8.75;8.05;;;;;;;-145.79;86.42;76237.06;5267513;28;20074;-75
2023/09/17 14:21:23;;;;;;;8.88;7.97;;;;;;;-145.79;86.35;76237.06;5274810;28;20102;-76
2023/09/17 14:23:55;;;;;;;8.05;7.25;;;;;;;-145.79;85.67;76226.47;5274050;28;20020;-75
2023/09/17 14:26:26;;;;;;;7.43;6.70;;;;;;;-145.79;86.19;76222.25;5271220;28;20476;-75
2023/09/17 14:28:57;;;;;;;7.88;6.82;;;;;;;-145.79;85.31;76226.47;5271035;28;20103;-77
2023/09/17 14:31:28;;;;;;;8.57;7.28;;;;;;;-145.79;85.46;76220.13;5273529;28;20016;-78
2023/09/17 14:34:00;;;;;;;8.63;7.32;;;;;;;-145.79;84.90;76226.47;5259480;28;20025;-78
2023/09/17 14:36:31;;;;;;;13.02;7.38;;;;;;;-145.79;86.04;76224.38;5273319;28;20032;-77
2023/09/17 14:39:03;;;;;;;9.32;7.60;;;;;;;-145.79;85.52;76220.13;5274693;28;20103;-77
2023/09/17 14:41:34;;;;;;;8.13;7.38;;;;;;;-145.79;85.18;76220.13;5271611;28;20029;-77
2023/09/17 14:44:08;;;;;;;7.68;6.97;;;;;;;-145.79;85.95;76209.53;5268471;28;20036;-76
2023/09/17 14:46:39;;;;;;;7.68;6.38;;;;;;;-145.79;84.98;76211.66;5273867;28;20032;-77
2023/09/17 14:49:11;;;;;;;12.02;10.90;;;;;;;-145.79;85.46;76205.28;5274269;28;20089;-76
2023/09/17 14:51:42;;;;;;;8.48;7.68;;;;;;;-145.79;84.80;76201.06;5268850;28;20021;-77
2023/09/17 14:54:13;;;;;;;8.32;6.95;;;;;;;-145.79;85.21;76203.16;5270483;28;20079;-75
2023/09/17 14:56:45;;;;;;;7.28;6.53;;;;;;;-145.79;85.12;76198.94;5272881;28;20053;-76
2023/09/17 14:59:16;;;;;;;8.07;7.25;;;;;;;-145.79;83.03;76198.94;5273560;28;20039;-77
2023/09/17 15:01:48;;;;;;;7.53;6.45;;;;;;;-145.79;83.37;76201.06;5271983;28;20114;-76
2023/09/17 15:04:19;;;;;;;10.27;9.30;;;;;;;-145.79;83.57;76194.69;5270118;28;20398;-76
2023/09/17 15:06:50;;;;;;;6.10;5.43;;;;;;;-145.79;82.70;76198.94;5271097;28;20033;-75
2023/09/17 15:09:21;;;;;;;8.43;6.03;;;;;;;-145.79;82.58;76207.41;5267408;28;20104;-76
2023/09/17 15:11:53;;;;;;;6.18;5.57;;;;;;;-145.79;83.36;76201.06;5271527;28;20100;-76
2023/09/17 15:14:24;;;;;;;5.90;5.22;;;;;;;-145.79;83.93;76198.94;5274030;28;20031;-76
2023/09/17 15:16:55;;;;;;;7.80;5.75;;;;;;;-145.79;84.24;76201.06;5272950;28;20476;-76
2023/09/17 15:19:27;;;;;;;5.88;5.38;;;;;;;-145.79;83.54;76205.28;5269083;28;20025;-76
2023/09/17 15:21:58;;;;;;;6.55;5.88;;;;;;;-145.79;83.92;76205.28;5270783;28;20519;-76
2023/09/17 15:24:29;;;;;;;6.93;5.57;;;;;;;-145.79;84.00;76209.53;5267160;28;20033;-76
2023/09/17 15:27:01;;;;;;;8.80;5.60;;;;;;;-145.79;84.34;76207.41;5266714;28;20029;-77
2023/09/17 15:29:32;;;;;;;6.22;5.57;;;;;;;-145.79;84.76;76205.28;5274351;28;20078;-76
2023/09/17 15:32:04;;;;;;;5.88;5.28;;;;;;;-145.79;85.24;76207.41;5273663;28;20025;-77
2023/09/17 15:34:38;;;;;;;6.95;6.35;;;;;;;-145.79;84.89;76211.66;5269203;28;20453;-78
2023/09/17 15:37:09;;;;;;;6.30;5.80;;;;;;;-145.79;84.55;76215.88;5270590;28;20494;-77
2023/09/17 15:39:41;;;;;;;5.80;5.13;;;;;;;-145.79;85.29;76207.41;5274176;28;20099;-77
2023/09/17 15:42:12;;;;;;;7.03;5.68;;;;;;;-145.79;86.42;76213.75;5271449;28;20032;-76
2023/09/17 15:44:43;;;;;;;7.03;5.95;;;;;;;-145.79;86.01;76213.75;5277594;28;20024;-76
2023/09/17 15:47:15;;;;;;;6.18;5.57;;;;;;;-145.79;85.77;76215.88;5277726;28;20048;-77
2023/09/17 15:49:48;;;;;;;6.50;5.93;;;;;;;-145.79;86.02;76211.66;5274269;28;20107;-76
2023/09/17 15:52:20;;;;;;;5.63;5.05;;;;;;;-145.79;86.36;76211.66;5274001;28;20029;-78
2023/09/17 15:54:51;;;;;;;8.20;5.55;;;;;;;-145.79;86.29;76213.75;5276886;28;20527;-77
2023/09/17 15:57:23;;;;;;;7.30;5.30;;;;;;;-145.79;86.88;76211.66;5278414;28;20037;-77
2023/09/17 15:59:54;;;;;;;6.15;5.50;;;;;;;-145.79;86.25;76226.47;5275636;28;20060;-76
2023/09/17 16:02:25;;;;;;;5.78;5.28;;;;;;;-145.79;86.75;76215.88;5273171;28;20053;-77
2023/09/17 16:04:57;;;;;;;6.72;5.88;;;;;;;-145.79;86.76;76213.75;5276862;28;20051;-76
2023/09/17 16:07:30;;;;;;;6.82;6.22;;;;;;;-145.79;86.82;76220.13;5278049;28;20099;-76
2023/09/17 16:10:01;;;;;;;6.95;6.30;;;;;;;-145.79;87.47;76215.88;5273520;28;20028;-77
2023/09/17 16:12:34;;;;;;;7.28;5.88;;;;;;;-145.79;87.26;76220.13;5273684;28;20017;-78
2023/09/17 16:15:06;;;;;;;6.43;5.30;;;;;;;-145.79;88.13;76220.13;5278961;28;20021;-76
2023/09/17 16:17:37;;;;;;;9.15;6.03;;;;;;;-145.79;88.34;76228.59;5268958;28;20028;-76
2023/09/17 16:20:09;;;;;;;9.38;7.15;;;;;;;-145.79;88.92;76232.84;5276020;28;20103;-77
2023/09/17 16:22:40;;;;;;;8.18;7.18;;;;;;;-145.79;89.15;76230.72;5276479;28;20071;-77
2023/09/17 16:25:12;;;;;;;7.88;7.18;;;;;;;-145.79;89.10;76228.59;5274367;28;20028;-76
2023/09/17 16:27:43;;;;;;;7.28;6.68;;;;;;;-145.79;88.73;76224.38;5273245;28;20452;-76
2023/09/17 16:30:15;;;;;;;6.90;6.25;;;;;;;-145.79;89.22;76220.13;5274435;28;20027;-75
2023/09/17 16:32:47;;;;;;;6.28;5.68;;;;;;;-145.79;89.61;76232.84;5265646;28;20560;-72
2023/09/17 16:35:18;;;;;;;7.13;6.45;;;;;;;-145.79;89.85;76228.59;5273019;28;20101;-72
2023/09/17 16:37:49;;;;;;;6.28;5.78;;;;;;;-145.79;89.77;76228.59;5276442;28;20058;-72
2023/09/17 16:40:21;;;;;;;5.97;5.35;;;;;;;-145.79;90.07;76230.72;5275146;28;20036;-72
2023/09/17 16:42:52;;;;;;;6.88;6.20;;;;;;;-145.79;90.32;76234.97;5273056;28;20109;-72
2023/09/17 16:45:23;;;;;;;6.63;6.03;;;;;;;-145.79;90.87;76241.31;5273484;28;20021;-76
2023/09/17 16:47:55;;;;;;;6.97;5.95;;;;;;;-145.79;90.90;76234.97;5277298;28;20078;-75
2023/09/17 16:50:27;;;;;;;6.57;5.97;;;;;;;-145.79;90.80;76234.97;5273819;28;20035;-76
2023/09/17 16:52:58;;;;;;;6.45;5.95;;;;;;;-145.79;91.08;76245.56;5273261;28;20033;-76
2023/09/17 16:55:29;;;;;;;5.85;5.45;;;;;;;-145.79;91.47;76241.31;5273112;28;20032;-76
